Terminal Aerodrome Forecast
Issued by NWS

Home | Current Version | Previous Version | Text Only | Print | Product List | Glossary On
Versions: 1 2 3 4 5 6 7 8 9 10 11 12 13 14 15 16 17 18 19 20 21 22 23 24 25 26 27 28 29 30 31 32
000
FTAK31 PANC 312342
TAFASN
TAF
PASN 312342Z 0100/0124 03035G45KT 5SM -RASN BR OVC015
     FM010900 35025G35KT 6SM -SHSN SCT015 OVC025
     FM011600 34025G35KT 5SM -SHSN BR BKN010 BKN020=

USA.gov is the U.S. government's official web portal to all federal, state and local government web resources and services.